sensor_id;sensor_type;location;lat;lon;timestamp;P1;durP1;ratioP1;P2;durP2;ratioP2
7817;SDS011;3954;52.624;9.212;2022-09-30T00:00:43;6.83;;;6.23;;
7817;SDS011;3954;52.624;9.212;2022-09-30T00:03:11;6.53;;;5.87;;
7817;SDS011;3954;52.624;9.212;2022-09-30T00:05:37;6.23;;;5.33;;
7817;SDS011;3954;52.624;9.212;2022-09-30T00:08:03;6.90;;;5.57;;
7817;SDS011;3954;52.624;9.212;2022-09-30T00:10:29;6.33;;;5.83;;
7817;SDS011;3954;52.624;9.212;2022-09-30T00:12:55;6.57;;;5.87;;
7817;SDS011;3954;52.624;9.212;2022-09-30T00:15:22;6.60;;;5.93;;
7817;SDS011;3954;52.624;9.212;2022-09-30T00:17:48;5.90;;;5.40;;
7817;SDS011;3954;52.624;9.212;2022-09-30T00:20:16;7.60;;;5.63;;
7817;SDS011;3954;52.624;9.212;2022-09-30T00:22:42;6.83;;;5.87;;
7817;SDS011;3954;52.624;9.212;2022-09-30T00:25:09;6.47;;;5.87;;
7817;SDS011;3954;52.624;9.212;2022-09-30T00:27:35;7.37;;;6.67;;
7817;SDS011;3954;52.624;9.212;2022-09-30T00:30:01;7.47;;;6.33;;
7817;SDS011;3954;52.624;9.212;2022-09-30T00:32:27;8.37;;;6.90;;
7817;SDS011;3954;52.624;9.212;2022-09-30T00:34:53;6.93;;;6.23;;
7817;SDS011;3954;52.624;9.212;2022-09-30T00:37:20;8.23;;;7.43;;
7817;SDS011;3954;52.624;9.212;2022-09-30T00:39:46;7.73;;;6.93;;
7817;SDS011;3954;52.624;9.212;2022-09-30T00:42:13;7.30;;;6.60;;
7817;SDS011;3954;52.624;9.212;2022-09-30T00:47:32;10.37;;;7.20;;
7817;SDS011;3954;52.624;9.212;2022-09-30T00:50:00;8.83;;;7.87;;
7817;SDS011;3954;52.624;9.212;2022-09-30T00:52:28;7.90;;;7.27;;
7817;SDS011;3954;52.624;9.212;2022-09-30T00:54:55;9.17;;;8.27;;
7817;SDS011;3954;52.624;9.212;2022-09-30T00:57:23;9.37;;;8.47;;
7817;SDS011;3954;52.624;9.212;2022-09-30T00:59:49;9.27;;;8.37;;
7817;SDS011;3954;52.624;9.212;2022-09-30T01:02:16;10.37;;;9.27;;
7817;SDS011;3954;52.624;9.212;2022-09-30T01:04:42;11.47;;;9.93;;
7817;SDS011;3954;52.624;9.212;2022-09-30T01:07:09;12.03;;;10.83;;
7817;SDS011;3954;52.624;9.212;2022-09-30T01:09:37;11.50;;;10.40;;
7817;SDS011;3954;52.624;9.212;2022-09-30T01:12:04;10.67;;;9.67;;
7817;SDS011;3954;52.624;9.212;2022-09-30T01:14:30;11.43;;;10.33;;
7817;SDS011;3954;52.624;9.212;2022-09-30T01:16:58;14.40;;;11.60;;
7817;SDS011;3954;52.624;9.212;2022-09-30T01:19:37;13.40;;;12.10;;
7817;SDS011;3954;52.624;9.212;2022-09-30T01:22:08;13.73;;;12.20;;
7817;SDS011;3954;52.624;9.212;2022-09-30T01:24:41;13.00;;;11.70;;
7817;SDS011;3954;52.624;9.212;2022-09-30T01:27:17;12.00;;;10.80;;
7817;SDS011;3954;52.624;9.212;2022-09-30T01:32:43;11.87;;;10.67;;
7817;SDS011;3954;52.624;9.212;2022-09-30T01:35:12;11.23;;;10.23;;
7817;SDS011;3954;52.624;9.212;2022-09-30T01:37:43;11.47;;;10.27;;
7817;SDS011;3954;52.624;9.212;2022-09-30T01:40:13;11.70;;;10.20;;
7817;SDS011;3954;52.624;9.212;2022-09-30T01:42:47;11.10;;;10.07;;
7817;SDS011;3954;52.624;9.212;2022-09-30T01:45:17;10.80;;;9.73;;
7817;SDS011;3954;52.624;9.212;2022-09-30T01:47:47;11.90;;;10.70;;
7817;SDS011;3954;52.624;9.212;2022-09-30T01:50:16;10.57;;;9.47;;
7817;SDS011;3954;52.624;9.212;2022-09-30T01:52:43;13.10;;;11.77;;
7817;SDS011;3954;52.624;9.212;2022-09-30T01:55:12;12.30;;;11.17;;
7817;SDS011;3954;52.624;9.212;2022-09-30T01:57:41;14.13;;;12.60;;
7817;SDS011;3954;52.624;9.212;2022-09-30T02:00:09;13.83;;;12.53;;
7817;SDS011;3954;52.624;9.212;2022-09-30T02:02:35;15.37;;;13.80;;
7817;SDS011;3954;52.624;9.212;2022-09-30T02:05:07;12.93;;;11.77;;
7817;SDS011;3954;52.624;9.212;2022-09-30T02:07:35;12.90;;;11.70;;
7817;SDS011;3954;52.624;9.212;2022-09-30T02:10:04;14.80;;;12.47;;
7817;SDS011;3954;52.624;9.212;2022-09-30T02:12:33;13.30;;;12.10;;
7817;SDS011;3954;52.624;9.212;2022-09-30T02:15:02;12.70;;;11.57;;
7817;SDS011;3954;52.624;9.212;2022-09-30T02:17:30;12.63;;;11.50;;
7817;SDS011;3954;52.624;9.212;2022-09-30T02:19:58;12.67;;;11.40;;
7817;SDS011;3954;52.624;9.212;2022-09-30T02:22:27;12.03;;;10.87;;
7817;SDS011;3954;52.624;9.212;2022-09-30T02:24:54;13.17;;;11.97;;
7817;SDS011;3954;52.624;9.212;2022-09-30T02:27:25;12.30;;;11.20;;
7817;SDS011;3954;52.624;9.212;2022-09-30T02:29:54;13.47;;;12.17;;
7817;SDS011;3954;52.624;9.212;2022-09-30T02:32:23;13.40;;;12.10;;
7817;SDS011;3954;52.624;9.212;2022-09-30T02:34:50;15.70;;;13.90;;
7817;SDS011;3954;52.624;9.212;2022-09-30T02:37:18;14.10;;;12.73;;
7817;SDS011;3954;52.624;9.212;2022-09-30T02:39:49;16.20;;;13.53;;
7817;SDS011;3954;52.624;9.212;2022-09-30T02:42:17;14.20;;;12.80;;
7817;SDS011;3954;52.624;9.212;2022-09-30T02:44:44;13.70;;;12.40;;
7817;SDS011;3954;52.624;9.212;2022-09-30T02:47:12;13.60;;;12.30;;
7817;SDS011;3954;52.624;9.212;2022-09-30T02:49:42;13.63;;;12.37;;
7817;SDS011;3954;52.624;9.212;2022-09-30T02:52:12;14.37;;;12.93;;
7817;SDS011;3954;52.624;9.212;2022-09-30T02:54:43;12.70;;;11.60;;
7817;SDS011;3954;52.624;9.212;2022-09-30T02:57:15;13.57;;;12.17;;
7817;SDS011;3954;52.624;9.212;2022-09-30T02:59:43;14.43;;;13.13;;
7817;SDS011;3954;52.624;9.212;2022-09-30T03:02:10;13.33;;;12.07;;
7817;SDS011;3954;52.624;9.212;2022-09-30T03:04:36;13.63;;;12.27;;
7817;SDS011;3954;52.624;9.212;2022-09-30T03:07:03;13.53;;;12.23;;
7817;SDS011;3954;52.624;9.212;2022-09-30T03:09:29;14.10;;;12.80;;
7817;SDS011;3954;52.624;9.212;2022-09-30T03:11:59;14.13;;;12.83;;
7817;SDS011;3954;52.624;9.212;2022-09-30T03:14:33;13.60;;;12.30;;
7817;SDS011;3954;52.624;9.212;2022-09-30T03:17:06;13.40;;;12.27;;
7817;SDS011;3954;52.624;9.212;2022-09-30T03:19:45;14.10;;;12.70;;
7817;SDS011;3954;52.624;9.212;2022-09-30T03:22:20;13.50;;;12.30;;
7817;SDS011;3954;52.624;9.212;2022-09-30T03:24:56;12.80;;;11.70;;
7817;SDS011;3954;52.624;9.212;2022-09-30T03:27:27;18.60;;;12.10;;
7817;SDS011;3954;52.624;9.212;2022-09-30T03:29:59;13.33;;;12.13;;
7817;SDS011;3954;52.624;9.212;2022-09-30T03:32:31;12.93;;;11.73;;
7817;SDS011;3954;52.624;9.212;2022-09-30T03:35:01;13.57;;;12.47;;
7817;SDS011;3954;52.624;9.212;2022-09-30T03:37:29;14.20;;;12.90;;
7817;SDS011;3954;52.624;9.212;2022-09-30T03:39:58;14.80;;;13.40;;
7817;SDS011;3954;52.624;9.212;2022-09-30T03:42:27;14.53;;;13.17;;
7817;SDS011;3954;52.624;9.212;2022-09-30T03:44:59;15.17;;;13.73;;
7817;SDS011;3954;52.624;9.212;2022-09-30T03:47:27;16.67;;;15.17;;
7817;SDS011;3954;52.624;9.212;2022-09-30T03:49:56;17.00;;;15.33;;
7817;SDS011;3954;52.624;9.212;2022-09-30T03:52:24;17.57;;;15.87;;
7817;SDS011;3954;52.624;9.212;2022-09-30T03:54:51;19.07;;;17.00;;
7817;SDS011;3954;52.624;9.212;2022-09-30T03:57:18;19.90;;;17.97;;
7817;SDS011;3954;52.624;9.212;2022-09-30T03:59:45;20.93;;;18.80;;
7817;SDS011;3954;52.624;9.212;2022-09-30T04:02:12;21.30;;;19.17;;
7817;SDS011;3954;52.624;9.212;2022-09-30T04:04:38;22.33;;;20.17;;
7817;SDS011;3954;52.624;9.212;2022-09-30T04:07:07;21.20;;;19.20;;
7817;SDS011;3954;52.624;9.212;2022-09-30T04:09:34;18.73;;;16.90;;
7817;SDS011;3954;52.624;9.212;2022-09-30T04:12:00;19.90;;;17.43;;
7817;SDS011;3954;52.624;9.212;2022-09-30T04:14:27;21.00;;;19.00;;
7817;SDS011;3954;52.624;9.212;2022-09-30T04:16:53;21.60;;;19.40;;
7817;SDS011;3954;52.624;9.212;2022-09-30T04:19:20;21.17;;;19.17;;
7817;SDS011;3954;52.624;9.212;2022-09-30T04:21:46;21.63;;;19.43;;
7817;SDS011;3954;52.624;9.212;2022-09-30T04:24:12;21.30;;;19.40;;
7817;SDS011;3954;52.624;9.212;2022-09-30T04:26:38;23.30;;;21.00;;
7817;SDS011;3954;52.624;9.212;2022-09-30T04:29:04;23.47;;;21.07;;
7817;SDS011;3954;52.624;9.212;2022-09-30T04:31:30;23.07;;;20.63;;
7817;SDS011;3954;52.624;9.212;2022-09-30T04:33:56;22.17;;;20.03;;
7817;SDS011;3954;52.624;9.212;2022-09-30T04:36:24;24.10;;;21.27;;
7817;SDS011;3954;52.624;9.212;2022-09-30T04:38:50;25.47;;;23.07;;
7817;SDS011;3954;52.624;9.212;2022-09-30T04:41:17;24.47;;;21.87;;
7817;SDS011;3954;52.624;9.212;2022-09-30T04:43:43;25.43;;;22.83;;
7817;SDS011;3954;52.624;9.212;2022-09-30T04:46:10;25.80;;;23.20;;
7817;SDS011;3954;52.624;9.212;2022-09-30T04:48:36;25.50;;;22.80;;
7817;SDS011;3954;52.624;9.212;2022-09-30T04:51:02;25.57;;;22.93;;
7817;SDS011;3954;52.624;9.212;2022-09-30T04:53:30;26.43;;;23.67;;
7817;SDS011;3954;52.624;9.212;2022-09-30T04:55:57;24.87;;;22.47;;
7817;SDS011;3954;52.624;9.212;2022-09-30T04:58:23;23.43;;;21.10;;
7817;SDS011;3954;52.624;9.212;2022-09-30T05:00:50;22.63;;;20.33;;
7817;SDS011;3954;52.624;9.212;2022-09-30T05:03:16;22.53;;;20.37;;
7817;SDS011;3954;52.624;9.212;2022-09-30T05:05:43;22.80;;;20.53;;
7817;SDS011;3954;52.624;9.212;2022-09-30T05:08:10;22.33;;;20.23;;
7817;SDS011;3954;52.624;9.212;2022-09-30T05:10:37;20.47;;;18.40;;
7817;SDS011;3954;52.624;9.212;2022-09-30T05:13:04;20.80;;;18.70;;
7817;SDS011;3954;52.624;9.212;2022-09-30T05:15:30;21.23;;;19.10;;
7817;SDS011;3954;52.624;9.212;2022-09-30T05:17:56;22.20;;;20.00;;
7817;SDS011;3954;52.624;9.212;2022-09-30T05:20:22;19.30;;;17.40;;
7817;SDS011;3954;52.624;9.212;2022-09-30T05:22:52;18.83;;;16.87;;
7817;SDS011;3954;52.624;9.212;2022-09-30T05:25:18;19.43;;;17.40;;
7817;SDS011;3954;52.624;9.212;2022-09-30T05:27:48;17.77;;;15.93;;
7817;SDS011;3954;52.624;9.212;2022-09-30T05:30:14;17.37;;;15.83;;
7817;SDS011;3954;52.624;9.212;2022-09-30T05:32:40;18.60;;;16.70;;
7817;SDS011;3954;52.624;9.212;2022-09-30T05:35:06;17.30;;;15.60;;
7817;SDS011;3954;52.624;9.212;2022-09-30T05:37:33;17.10;;;15.43;;
7817;SDS011;3954;52.624;9.212;2022-09-30T05:39:59;15.97;;;14.57;;
7817;SDS011;3954;52.624;9.212;2022-09-30T05:42:25;17.47;;;14.63;;
7817;SDS011;3954;52.624;9.212;2022-09-30T05:44:53;20.03;;;17.37;;
7817;SDS011;3954;52.624;9.212;2022-09-30T05:47:19;18.70;;;16.57;;
7817;SDS011;3954;52.624;9.212;2022-09-30T05:49:45;19.07;;;17.17;;
7817;SDS011;3954;52.624;9.212;2022-09-30T05:52:11;19.93;;;17.83;;
7817;SDS011;3954;52.624;9.212;2022-09-30T05:54:38;20.00;;;18.10;;
7817;SDS011;3954;52.624;9.212;2022-09-30T05:57:04;18.70;;;16.90;;
7817;SDS011;3954;52.624;9.212;2022-09-30T05:59:32;20.47;;;18.47;;
7817;SDS011;3954;52.624;9.212;2022-09-30T06:01:59;21.33;;;19.30;;
7817;SDS011;3954;52.624;9.212;2022-09-30T06:04:25;22.40;;;20.07;;
7817;SDS011;3954;52.624;9.212;2022-09-30T06:06:51;22.97;;;20.30;;
7817;SDS011;3954;52.624;9.212;2022-09-30T06:09:17;22.63;;;20.43;;
7817;SDS011;3954;52.624;9.212;2022-09-30T06:11:43;24.73;;;22.20;;
7817;SDS011;3954;52.624;9.212;2022-09-30T06:14:09;24.97;;;22.57;;
7817;SDS011;3954;52.624;9.212;2022-09-30T06:16:35;26.83;;;23.97;;
7817;SDS011;3954;52.624;9.212;2022-09-30T06:19:03;27.47;;;24.77;;
7817;SDS011;3954;52.624;9.212;2022-09-30T06:21:30;28.03;;;25.10;;
7817;SDS011;3954;52.624;9.212;2022-09-30T06:23:56;28.03;;;25.03;;
7817;SDS011;3954;52.624;9.212;2022-09-30T06:26:22;28.60;;;25.70;;
7817;SDS011;3954;52.624;9.212;2022-09-30T06:28:48;29.73;;;25.37;;
7817;SDS011;3954;52.624;9.212;2022-09-30T06:31:15;29.90;;;25.70;;
7817;SDS011;3954;52.624;9.212;2022-09-30T06:33:41;28.40;;;25.60;;
7817;SDS011;3954;52.624;9.212;2022-09-30T06:36:09;28.20;;;25.30;;
7817;SDS011;3954;52.624;9.212;2022-09-30T06:38:35;26.47;;;23.77;;
7817;SDS011;3954;52.624;9.212;2022-09-30T06:41:01;25.93;;;23.20;;
7817;SDS011;3954;52.624;9.212;2022-09-30T06:43:27;25.80;;;23.17;;
7817;SDS011;3954;52.624;9.212;2022-09-30T06:45:53;25.23;;;22.63;;
7817;SDS011;3954;52.624;9.212;2022-09-30T06:48:19;25.70;;;23.10;;
7817;SDS011;3954;52.624;9.212;2022-09-30T06:50:47;25.10;;;22.53;;
7817;SDS011;3954;52.624;9.212;2022-09-30T06:53:14;24.47;;;22.07;;
7817;SDS011;3954;52.624;9.212;2022-09-30T06:55:40;22.60;;;20.30;;
7817;SDS011;3954;52.624;9.212;2022-09-30T06:58:14;22.10;;;19.97;;
7817;SDS011;3954;52.624;9.212;2022-09-30T07:00:40;21.03;;;19.07;;
7817;SDS011;3954;52.624;9.212;2022-09-30T07:03:08;23.17;;;20.77;;
7817;SDS011;3954;52.624;9.212;2022-09-30T07:05:41;21.20;;;19.30;;
7817;SDS011;3954;52.624;9.212;2022-09-30T07:08:07;21.73;;;19.30;;
7817;SDS011;3954;52.624;9.212;2022-09-30T07:10:35;19.70;;;17.80;;
7817;SDS011;3954;52.624;9.212;2022-09-30T07:13:02;19.93;;;18.07;;
7817;SDS011;3954;52.624;9.212;2022-09-30T07:15:28;19.63;;;17.83;;
7817;SDS011;3954;52.624;9.212;2022-09-30T07:17:54;19.87;;;18.00;;
7817;SDS011;3954;52.624;9.212;2022-09-30T07:20:24;19.73;;;17.83;;
7817;SDS011;3954;52.624;9.212;2022-09-30T07:22:50;19.73;;;17.70;;
7817;SDS011;3954;52.624;9.212;2022-09-30T07:25:16;17.73;;;16.13;;
7817;SDS011;3954;52.624;9.212;2022-09-30T07:27:45;19.27;;;17.23;;
7817;SDS011;3954;52.624;9.212;2022-09-30T07:30:11;16.80;;;15.30;;
7817;SDS011;3954;52.624;9.212;2022-09-30T07:32:37;17.03;;;15.53;;
7817;SDS011;3954;52.624;9.212;2022-09-30T07:35:03;16.83;;;15.23;;
7817;SDS011;3954;52.624;9.212;2022-09-30T07:37:30;15.13;;;13.73;;
7817;SDS011;3954;52.624;9.212;2022-09-30T07:40:00;15.90;;;14.37;;
7817;SDS011;3954;52.624;9.212;2022-09-30T07:42:26;15.93;;;14.33;;
7817;SDS011;3954;52.624;9.212;2022-09-30T07:44:54;14.33;;;12.93;;
7817;SDS011;3954;52.624;9.212;2022-09-30T07:47:20;14.47;;;13.00;;
7817;SDS011;3954;52.624;9.212;2022-09-30T07:49:47;13.33;;;12.23;;
7817;SDS011;3954;52.624;9.212;2022-09-30T07:52:13;13.50;;;12.30;;
7817;SDS011;3954;52.624;9.212;2022-09-30T07:54:40;14.07;;;12.77;;
7817;SDS011;3954;52.624;9.212;2022-09-30T07:57:06;14.57;;;13.23;;
7817;SDS011;3954;52.624;9.212;2022-09-30T07:59:33;13.37;;;12.07;;
7817;SDS011;3954;52.624;9.212;2022-09-30T08:02:01;13.23;;;12.03;;
7817;SDS011;3954;52.624;9.212;2022-09-30T08:04:27;16.53;;;12.07;;
7817;SDS011;3954;52.624;9.212;2022-09-30T08:06:54;12.70;;;11.50;;
7817;SDS011;3954;52.624;9.212;2022-09-30T08:09:21;13.17;;;11.87;;
7817;SDS011;3954;52.624;9.212;2022-09-30T08:11:47;11.87;;;10.83;;
7817;SDS011;3954;52.624;9.212;2022-09-30T08:14:14;11.17;;;10.13;;
7817;SDS011;3954;52.624;9.212;2022-09-30T08:16:40;12.80;;;10.83;;
7817;SDS011;3954;52.624;9.212;2022-09-30T08:19:08;11.63;;;10.53;;
7817;SDS011;3954;52.624;9.212;2022-09-30T08:21:37;10.73;;;9.70;;
7817;SDS011;3954;52.624;9.212;2022-09-30T08:24:03;11.40;;;10.20;;
7817;SDS011;3954;52.624;9.212;2022-09-30T08:26:29;10.50;;;9.50;;
7817;SDS011;3954;52.624;9.212;2022-09-30T08:28:55;10.47;;;9.50;;
7817;SDS011;3954;52.624;9.212;2022-09-30T08:31:22;10.33;;;9.33;;
7817;SDS011;3954;52.624;9.212;2022-09-30T08:33:49;10.27;;;9.27;;
7817;SDS011;3954;52.624;9.212;2022-09-30T08:36:17;10.17;;;9.27;;
7817;SDS011;3954;52.624;9.212;2022-09-30T08:38:43;10.17;;;9.07;;
7817;SDS011;3954;52.624;9.212;2022-09-30T08:41:16;10.50;;;9.53;;
7817;SDS011;3954;52.624;9.212;2022-09-30T08:43:48;10.03;;;9.07;;
7817;SDS011;3954;52.624;9.212;2022-09-30T08:46:20;10.67;;;9.60;;
7817;SDS011;3954;52.624;9.212;2022-09-30T08:48:55;9.30;;;8.50;;
7817;SDS011;3954;52.624;9.212;2022-09-30T08:51:29;12.23;;;9.77;;
7817;SDS011;3954;52.624;9.212;2022-09-30T08:53:56;9.33;;;8.43;;
7817;SDS011;3954;52.624;9.212;2022-09-30T08:56:24;9.93;;;8.93;;
7817;SDS011;3954;52.624;9.212;2022-09-30T08:58:53;9.00;;;7.70;;
7817;SDS011;3954;52.624;9.212;2022-09-30T09:01:22;8.83;;;8.03;;
7817;SDS011;3954;52.624;9.212;2022-09-30T09:03:51;10.60;;;8.50;;
7817;SDS011;3954;52.624;9.212;2022-09-30T09:06:19;10.97;;;7.57;;
7817;SDS011;3954;52.624;9.212;2022-09-30T09:08:54;9.13;;;8.23;;
7817;SDS011;3954;52.624;9.212;2022-09-30T09:11:28;9.40;;;7.90;;
7817;SDS011;3954;52.624;9.212;2022-09-30T09:13:58;9.47;;;7.70;;
7817;SDS011;3954;52.624;9.212;2022-09-30T09:16:27;8.70;;;7.73;;
7817;SDS011;3954;52.624;9.212;2022-09-30T09:18:57;8.63;;;7.50;;
7817;SDS011;3954;52.624;9.212;2022-09-30T09:21:27;9.30;;;7.70;;
7817;SDS011;3954;52.624;9.212;2022-09-30T09:23:59;8.27;;;7.40;;
7817;SDS011;3954;52.624;9.212;2022-09-30T09:26:25;8.47;;;7.57;;
7817;SDS011;3954;52.624;9.212;2022-09-30T09:28:56;8.13;;;7.10;;
7817;SDS011;3954;52.624;9.212;2022-09-30T09:31:24;7.40;;;6.70;;
7817;SDS011;3954;52.624;9.212;2022-09-30T09:33:50;7.40;;;6.27;;
7817;SDS011;3954;52.624;9.212;2022-09-30T09:36:23;7.87;;;7.07;;
7817;SDS011;3954;52.624;9.212;2022-09-30T09:38:56;8.63;;;6.93;;
7817;SDS011;3954;52.624;9.212;2022-09-30T09:41:28;8.27;;;7.47;;
7817;SDS011;3954;52.624;9.212;2022-09-30T09:43:59;7.20;;;6.00;;
7817;SDS011;3954;52.624;9.212;2022-09-30T09:46:29;9.40;;;7.57;;
7817;SDS011;3954;52.624;9.212;2022-09-30T09:51:44;7.77;;;6.83;;
7817;SDS011;3954;52.624;9.212;2022-09-30T09:54:12;9.30;;;7.60;;
7817;SDS011;3954;52.624;9.212;2022-09-30T09:56:42;7.53;;;6.73;;
7817;SDS011;3954;52.624;9.212;2022-09-30T09:59:09;7.30;;;6.60;;
7817;SDS011;3954;52.624;9.212;2022-09-30T10:01:38;7.80;;;6.93;;
7817;SDS011;3954;52.624;9.212;2022-09-30T10:04:08;8.77;;;7.80;;
7817;SDS011;3954;52.624;9.212;2022-09-30T10:06:41;8.33;;;7.63;;
7817;SDS011;3954;52.624;9.212;2022-09-30T10:09:10;8.80;;;8.00;;
7817;SDS011;3954;52.624;9.212;2022-09-30T10:11:47;8.83;;;7.20;;
7817;SDS011;3954;52.624;9.212;2022-09-30T10:14:15;7.17;;;6.57;;
7817;SDS011;3954;52.624;9.212;2022-09-30T10:16:41;9.10;;;7.87;;
7817;SDS011;3954;52.624;9.212;2022-09-30T10:19:15;7.87;;;7.17;;
7817;SDS011;3954;52.624;9.212;2022-09-30T10:21:43;8.40;;;7.63;;
7817;SDS011;3954;52.624;9.212;2022-09-30T10:24:17;8.23;;;7.47;;
7817;SDS011;3954;52.624;9.212;2022-09-30T10:26:43;8.43;;;7.63;;
7817;SDS011;3954;52.624;9.212;2022-09-30T10:29:21;11.20;;;8.10;;
7817;SDS011;3954;52.624;9.212;2022-09-30T10:31:50;7.50;;;6.80;;
7817;SDS011;3954;52.624;9.212;2022-09-30T10:34:18;8.77;;;7.57;;
7817;SDS011;3954;52.624;9.212;2022-09-30T10:36:46;8.80;;;7.43;;
7817;SDS011;3954;52.624;9.212;2022-09-30T10:39:18;7.80;;;6.97;;
7817;SDS011;3954;52.624;9.212;2022-09-30T10:41:47;8.70;;;7.63;;
7817;SDS011;3954;52.624;9.212;2022-09-30T10:44:14;10.53;;;7.03;;
7817;SDS011;3954;52.624;9.212;2022-09-30T10:46:43;9.60;;;7.33;;
7817;SDS011;3954;52.624;9.212;2022-09-30T10:49:10;11.33;;;7.10;;
7817;SDS011;3954;52.624;9.212;2022-09-30T10:51:43;7.80;;;7.00;;
7817;SDS011;3954;52.624;9.212;2022-09-30T10:54:14;7.13;;;6.43;;
7817;SDS011;3954;52.624;9.212;2022-09-30T10:56:57;8.33;;;7.53;;
7817;SDS011;3954;52.624;9.212;2022-09-30T10:59:30;7.43;;;6.73;;
7817;SDS011;3954;52.624;9.212;2022-09-30T11:01:58;8.40;;;7.63;;
7817;SDS011;3954;52.624;9.212;2022-09-30T11:04:26;8.10;;;7.27;;
7817;SDS011;3954;52.624;9.212;2022-09-30T11:06:55;7.13;;;6.30;;
7817;SDS011;3954;52.624;9.212;2022-09-30T11:09:24;7.90;;;7.17;;
7817;SDS011;3954;52.624;9.212;2022-09-30T11:11:54;7.60;;;6.90;;
7817;SDS011;3954;52.624;9.212;2022-09-30T11:14:25;7.27;;;6.57;;
7817;SDS011;3954;52.624;9.212;2022-09-30T11:16:56;7.93;;;6.80;;
7817;SDS011;3954;52.624;9.212;2022-09-30T11:19:28;8.80;;;7.20;;
7817;SDS011;3954;52.624;9.212;2022-09-30T11:21:56;6.63;;;6.03;;
7817;SDS011;3954;52.624;9.212;2022-09-30T11:24:25;6.60;;;6.00;;
7817;SDS011;3954;52.624;9.212;2022-09-30T11:26:55;6.57;;;5.97;;
7817;SDS011;3954;52.624;9.212;2022-09-30T11:29:37;5.37;;;4.50;;
7817;SDS011;3954;52.624;9.212;2022-09-30T11:32:08;4.93;;;4.53;;
7817;SDS011;3954;52.624;9.212;2022-09-30T11:34:41;6.87;;;6.20;;
7817;SDS011;3954;52.624;9.212;2022-09-30T11:37:12;6.70;;;5.47;;
7817;SDS011;3954;52.624;9.212;2022-09-30T11:39:46;7.43;;;6.73;;
7817;SDS011;3954;52.624;9.212;2022-09-30T11:42:16;5.77;;;5.07;;
7817;SDS011;3954;52.624;9.212;2022-09-30T11:44:47;8.13;;;5.30;;
7817;SDS011;3954;52.624;9.212;2022-09-30T11:50:17;6.73;;;6.13;;
7817;SDS011;3954;52.624;9.212;2022-09-30T11:52:50;6.10;;;5.50;;
7817;SDS011;3954;52.624;9.212;2022-09-30T11:55:22;7.03;;;5.67;;
7817;SDS011;3954;52.624;9.212;2022-09-30T11:57:52;9.30;;;5.77;;
7817;SDS011;3954;52.624;9.212;2022-09-30T12:00:25;6.73;;;5.50;;
7817;SDS011;3954;52.624;9.212;2022-09-30T12:02:52;6.80;;;6.07;;
7817;SDS011;3954;52.624;9.212;2022-09-30T12:05:21;5.43;;;4.70;;
7817;SDS011;3954;52.624;9.212;2022-09-30T12:07:49;5.37;;;4.83;;
7817;SDS011;3954;52.624;9.212;2022-09-30T12:10:17;5.60;;;5.10;;
7817;SDS011;3954;52.624;9.212;2022-09-30T12:12:45;7.37;;;5.40;;
7817;SDS011;3954;52.624;9.212;2022-09-30T12:15:14;6.90;;;5.30;;
7817;SDS011;3954;52.624;9.212;2022-09-30T12:17:43;7.80;;;5.63;;
7817;SDS011;3954;52.624;9.212;2022-09-30T12:20:14;8.63;;;5.37;;
7817;SDS011;3954;52.624;9.212;2022-09-30T12:22:43;6.87;;;5.90;;
7817;SDS011;3954;52.624;9.212;2022-09-30T12:25:11;6.50;;;5.90;;
7817;SDS011;3954;52.624;9.212;2022-09-30T12:27:38;8.13;;;5.43;;
7817;SDS011;3954;52.624;9.212;2022-09-30T12:30:09;7.90;;;5.30;;
7817;SDS011;3954;52.624;9.212;2022-09-30T12:35:39;7.33;;;5.80;;
7817;SDS011;3954;52.624;9.212;2022-09-30T12:38:15;8.90;;;5.50;;
7817;SDS011;3954;52.624;9.212;2022-09-30T12:43:42;7.80;;;6.80;;
7817;SDS011;3954;52.624;9.212;2022-09-30T12:46:17;8.17;;;6.77;;
7817;SDS011;3954;52.624;9.212;2022-09-30T12:48:45;8.83;;;6.40;;
7817;SDS011;3954;52.624;9.212;2022-09-30T12:51:20;7.37;;;6.60;;
7817;SDS011;3954;52.624;9.212;2022-09-30T12:53:48;8.07;;;7.33;;
7817;SDS011;3954;52.624;9.212;2022-09-30T12:56:15;7.90;;;7.10;;
7817;SDS011;3954;52.624;9.212;2022-09-30T12:58:42;7.83;;;6.63;;
7817;SDS011;3954;52.624;9.212;2022-09-30T13:01:10;8.07;;;7.00;;
7817;SDS011;3954;52.624;9.212;2022-09-30T13:03:50;8.67;;;6.43;;
7817;SDS011;3954;52.624;9.212;2022-09-30T13:06:17;6.63;;;6.03;;
7817;SDS011;3954;52.624;9.212;2022-09-30T13:08:46;7.03;;;5.60;;
7817;SDS011;3954;52.624;9.212;2022-09-30T13:11:30;6.07;;;5.20;;
7817;SDS011;3954;52.624;9.212;2022-09-30T13:13:59;5.50;;;5.00;;
7817;SDS011;3954;52.624;9.212;2022-09-30T13:19:18;5.37;;;4.40;;
7817;SDS011;3954;52.624;9.212;2022-09-30T13:21:44;4.43;;;4.00;;
7817;SDS011;3954;52.624;9.212;2022-09-30T13:24:12;5.73;;;4.27;;
7817;SDS011;3954;52.624;9.212;2022-09-30T13:26:45;5.00;;;4.50;;
7817;SDS011;3954;52.624;9.212;2022-09-30T13:29:35;5.03;;;4.53;;
7817;SDS011;3954;52.624;9.212;2022-09-30T13:32:04;8.00;;;4.40;;
7817;SDS011;3954;52.624;9.212;2022-09-30T13:34:30;4.83;;;4.27;;
7817;SDS011;3954;52.624;9.212;2022-09-30T13:36:57;4.53;;;3.73;;
7817;SDS011;3954;52.624;9.212;2022-09-30T13:39:25;4.87;;;3.83;;
7817;SDS011;3954;52.624;9.212;2022-09-30T13:41:59;4.67;;;3.67;;
7817;SDS011;3954;52.624;9.212;2022-09-30T13:44:29;3.37;;;3.07;;
7817;SDS011;3954;52.624;9.212;2022-09-30T13:46:58;5.30;;;3.90;;
7817;SDS011;3954;52.624;9.212;2022-09-30T13:49:29;6.60;;;4.50;;
7817;SDS011;3954;52.624;9.212;2022-09-30T13:51:57;4.83;;;3.97;;
7817;SDS011;3954;52.624;9.212;2022-09-30T13:54:25;4.00;;;3.60;;
7817;SDS011;3954;52.624;9.212;2022-09-30T13:56:53;5.73;;;3.67;;
7817;SDS011;3954;52.624;9.212;2022-09-30T13:59:36;4.03;;;3.63;;
7817;SDS011;3954;52.624;9.212;2022-09-30T14:05:06;6.30;;;4.10;;
7817;SDS011;3954;52.624;9.212;2022-09-30T14:07:40;4.97;;;4.17;;
7817;SDS011;3954;52.624;9.212;2022-09-30T14:13:10;4.23;;;3.83;;
7817;SDS011;3954;52.624;9.212;2022-09-30T14:15:45;8.10;;;3.70;;
7817;SDS011;3954;52.624;9.212;2022-09-30T14:18:26;4.47;;;4.00;;
7817;SDS011;3954;52.624;9.212;2022-09-30T14:20:59;5.00;;;4.00;;
7817;SDS011;3954;52.624;9.212;2022-09-30T14:23:29;4.70;;;3.67;;
7817;SDS011;3954;52.624;9.212;2022-09-30T14:25:56;4.53;;;3.50;;
7817;SDS011;3954;52.624;9.212;2022-09-30T14:28:27;4.50;;;4.10;;
7817;SDS011;3954;52.624;9.212;2022-09-30T14:30:58;5.13;;;3.73;;
7817;SDS011;3954;52.624;9.212;2022-09-30T14:33:34;3.77;;;3.37;;
7817;SDS011;3954;52.624;9.212;2022-09-30T14:36:01;4.20;;;3.63;;
7817;SDS011;3954;52.624;9.212;2022-09-30T14:38:29;5.50;;;4.17;;
7817;SDS011;3954;52.624;9.212;2022-09-30T14:40:56;4.70;;;4.30;;
7817;SDS011;3954;52.624;9.212;2022-09-30T14:43:24;5.23;;;4.27;;
7817;SDS011;3954;52.624;9.212;2022-09-30T14:46:00;4.23;;;3.93;;
7817;SDS011;3954;52.624;9.212;2022-09-30T14:48:27;4.93;;;3.67;;
7817;SDS011;3954;52.624;9.212;2022-09-30T14:50:55;4.13;;;3.73;;
7817;SDS011;3954;52.624;9.212;2022-09-30T14:53:26;5.87;;;4.40;;
7817;SDS011;3954;52.624;9.212;2022-09-30T14:55:52;4.67;;;4.27;;
7817;SDS011;3954;52.624;9.212;2022-09-30T14:58:22;5.37;;;3.97;;
7817;SDS011;3954;52.624;9.212;2022-09-30T15:01:04;5.53;;;4.63;;
7817;SDS011;3954;52.624;9.212;2022-09-30T15:03:31;6.27;;;4.40;;
7817;SDS011;3954;52.624;9.212;2022-09-30T15:05:59;6.23;;;3.97;;
7817;SDS011;3954;52.624;9.212;2022-09-30T15:08:25;6.53;;;3.70;;
7817;SDS011;3954;52.624;9.212;2022-09-30T15:10:51;6.70;;;3.50;;
7817;SDS011;3954;52.624;9.212;2022-09-30T15:13:19;5.33;;;4.13;;
7817;SDS011;3954;52.624;9.212;2022-09-30T15:15:46;4.17;;;3.77;;
7817;SDS011;3954;52.624;9.212;2022-09-30T15:18:23;4.67;;;3.67;;
7817;SDS011;3954;52.624;9.212;2022-09-30T15:20:50;3.73;;;3.43;;
7817;SDS011;3954;52.624;9.212;2022-09-30T15:23:23;3.40;;;3.10;;
7817;SDS011;3954;52.624;9.212;2022-09-30T15:25:49;5.47;;;3.30;;
7817;SDS011;3954;52.624;9.212;2022-09-30T15:28:16;4.20;;;3.80;;
7817;SDS011;3954;52.624;9.212;2022-09-30T15:30:42;4.23;;;3.83;;
7817;SDS011;3954;52.624;9.212;2022-09-30T15:33:11;4.80;;;4.40;;
7817;SDS011;3954;52.624;9.212;2022-09-30T15:35:40;4.90;;;4.30;;